Arcadia, Florida
Current Conditions -  °F | °C
As of 4:53 AM on Sunday 26 Oct 2014 (Local Time) from KPGD Reporting Station
Clear Clear  
Wind Chill: 59°   Ceiling: Unl
Heat Index: 59°   Visibility: 10mi
Dew Point: 56°   Wind: 5mph
Humidity: 90%   Direction: 30°NNE
Pressure: 29.97"   Gusts: NA
Location:  27.22°N, 81.86°W
Report Text: KPGD 260853Z AUTO 03004KT 10SM CLR 15/13 A2997 RMK AO2 SLP149 T01500133 58008
Loading
Personal Weather Stations






























Interactive Weather Map
Tropical Storm Tracking
New forecast layout! Learn more

10-Day Weather Forecast

Advertisements
Track Severe Weather on mobile